Time;durP1;ratioP1;P1;durP2;ratioP2;P2;SDS_P1;SDS_P2;PMS_P1;PMS_P2;Temp;Humidity;BMP_temperature;BMP_pressure;BME280_temperature;BME280_humidity;BME280_pressure;Samples;Min_cycle;Max_cycle;Signal;HPM_P1;HPM_P2
2023/09/17 00:01:02;;;;;;;10.57;7.50;;;;;;;17.76;80.25;98724.94;5009217;28;20605;-89
2023/09/17 00:03:27;;;;;;;14.98;8.35;;;;;;;17.81;80.02;98726.75;5009560;28;20577;-89
2023/09/17 00:05:53;;;;;;;23.35;8.07;;;;;;;17.85;79.79;98720.47;4995751;28;20093;-89
2023/09/17 00:08:18;;;;;;;15.25;7.85;;;;;;;17.13;79.40;98622.16;5002802;28;20133;-89
2023/09/17 00:10:45;;;;;;;10.63;8.70;;;;;;;17.45;79.66;98669.09;4992438;28;20437;-89
2023/09/17 00:13:12;;;;;;;17.45;7.60;;;;;;;17.67;79.83;98702.44;5012146;28;20033;-89
2023/09/17 00:15:38;;;;;;;13.15;7.38;;;;;;;17.57;80.12;98691.84;5008752;28;20512;-89
2023/09/17 00:18:04;;;;;;;22.02;7.97;;;;;;;17.45;80.07;98656.38;4994978;28;20038;-89
2023/09/17 00:20:29;;;;;;;11.55;7.78;;;;;;;17.68;80.27;98720.25;4976931;28;20380;-89
2023/09/17 00:22:55;;;;;;;14.52;8.48;;;;;;;17.62;81.09;98717.94;5012900;28;20022;-89
2023/09/17 00:25:25;;;;;;;17.63;7.85;;;;;;;17.56;80.93;98705.63;5009846;28;20026;-89
2023/09/17 00:27:50;;;;;;;18.48;7.90;;;;;;;17.82;80.48;98722.97;4995644;28;20448;-89
2023/09/17 00:30:16;;;;;;;11.93;7.05;;;;;;;17.85;79.91;98706.97;5006242;28;20029;-89
2023/09/17 00:32:41;;;;;;;11.70;7.88;;;;;;;17.62;80.68;98705.25;4980980;28;20092;-89
2023/09/17 00:35:07;;;;;;;17.73;8.05;;;;;;;17.57;81.24;98702.63;4990018;28;20033;-90
2023/09/17 00:37:32;;;;;;;19.63;7.53;;;;;;;17.63;80.89;98717.63;5005990;28;20109;-89
2023/09/17 00:39:58;;;;;;;18.70;8.32;;;;;;;17.28;80.66;98658.84;5010414;28;20030;-90
2023/09/17 00:42:24;;;;;;;17.65;8.20;;;;;;;17.35;80.97;98661.97;4993162;28;20037;-89
2023/09/17 00:44:49;;;;;;;16.58;8.10;;;;;;;17.64;80.85;98703.03;5010189;28;20540;-89
2023/09/17 00:47:15;;;;;;;16.23;8.00;;;;;;;17.54;81.22;98714.00;4991656;28;20037;-89
2023/09/17 00:49:41;;;;;;;19.48;8.60;;;;;;;17.45;81.50;98691.47;4986898;28;20034;-89
2023/09/17 00:52:15;;;;;;;11.38;7.38;;;;;;;17.25;81.23;98651.38;5014055;28;20033;-89
2023/09/17 00:54:42;;;;;;;15.43;7.82;;;;;;;17.52;81.46;98680.31;5009418;28;20026;-89
2023/09/17 00:57:07;;;;;;;10.98;7.47;;;;;;;17.72;81.44;98706.94;4993179;28;20068;-89
2023/09/17 00:59:33;;;;;;;13.80;8.30;;;;;;;17.48;81.68;98660.38;4994162;28;20021;-89
2023/09/17 01:01:59;;;;;;;14.65;7.03;;;;;;;17.56;81.96;98675.94;5008438;28;20033;-89
2023/09/17 01:04:26;;;;;;;14.02;7.50;;;;;;;17.71;81.86;98700.72;4995629;28;20030;-89
2023/09/17 01:06:55;;;;;;;11.07;7.32;;;;;;;17.69;82.46;98683.25;5006550;28;20057;-89
2023/09/17 01:09:25;;;;;;;11.25;7.90;;;;;;;17.64;82.41;98691.44;5005505;28;20048;-89
2023/09/17 01:11:51;;;;;;;10.57;8.20;;;;;;;17.62;81.93;98672.84;5010152;28;20106;-89
2023/09/17 01:14:18;;;;;;;10.20;8.20;;;;;;;17.58;82.87;98679.91;5009059;28;20122;-89
2023/09/17 01:16:45;;;;;;;13.48;7.95;;;;;;;17.22;83.07;98623.06;5005077;28;20075;-89
2023/09/17 01:19:28;;;;;;;8.93;7.97;;;;;;;17.54;82.94;98680.84;4992759;28;20038;-89
2023/09/17 01:22:09;;;;;;;11.98;8.10;;;;;;;17.31;82.99;98639.38;5016899;28;20030;-89
2023/09/17 01:24:45;;;;;;;9.45;8.35;;;;;;;17.76;82.23;98683.63;5009993;28;20540;-89
2023/09/17 01:27:12;;;;;;;9.60;8.30;;;;;;;17.69;82.36;98672.47;5012104;28;20048;-89
2023/09/17 01:29:41;;;;;;;10.80;8.50;;;;;;;17.40;82.29;98624.13;5012508;28;20121;-90
2023/09/17 01:32:07;;;;;;;12.43;8.88;;;;;;;17.72;82.43;98680.75;5011829;28;20030;-89
2023/09/17 01:34:45;;;;;;;16.58;8.25;;;;;;;17.69;82.49;98684.03;5009733;28;20545;-89
2023/09/17 01:37:17;;;;;;;13.95;8.52;;;;;;;17.64;82.74;98683.34;5010863;28;20025;-89
2023/09/17 01:39:51;;;;;;;10.48;7.60;;;;;;;17.45;82.51;98640.19;5007371;28;20021;-89
2023/09/17 01:42:19;;;;;;;12.60;8.63;;;;;;;17.43;82.70;98642.38;5014546;28;20503;-89
2023/09/17 01:44:46;;;;;;;17.08;8.57;;;;;;;17.41;82.02;98649.97;5016003;28;20059;-89
2023/09/17 01:47:11;;;;;;;10.68;8.43;;;;;;;17.66;82.58;98692.75;5011586;28;20083;-87
2023/09/17 01:49:39;;;;;;;16.85;7.57;;;;;;;17.30;82.57;98645.09;4996219;28;20042;-88
2023/09/17 01:52:05;;;;;;;18.90;8.75;;;;;;;17.59;82.41;98673.44;5017489;28;20038;-87
2023/09/17 01:54:30;;;;;;;14.65;8.45;;;;;;;17.31;82.89;98643.97;4983777;28;20034;-87
2023/09/17 01:56:55;;;;;;;12.63;8.57;;;;;;;17.40;82.78;98663.78;5013691;28;20092;-87
2023/09/17 01:59:21;;;;;;;10.50;7.72;;;;;;;17.54;83.37;98683.53;5013919;28;20034;-87
2023/09/17 02:01:46;;;;;;;10.38;7.93;;;;;;;17.56;83.21;98687.50;4980228;28;20029;-87
2023/09/17 02:04:12;;;;;;;10.60;8.98;;;;;;;17.65;82.86;98687.63;5029123;28;20050;-87
2023/09/17 02:06:37;;;;;;;10.15;8.55;;;;;;;17.45;83.36;98666.41;4995540;28;20401;-87
2023/09/17 02:09:08;;;;;;;13.43;7.78;;;;;;;17.59;82.99;98691.53;4979691;28;20034;-87
2023/09/17 02:11:33;;;;;;;10.55;8.25;;;;;;;17.08;83.35;98641.09;5027153;28;20034;-87
2023/09/17 02:13:59;;;;;;;10.18;8.88;;;;;;;16.74;85.90;98639.78;5014682;28;20044;-87
2023/09/17 02:16:24;;;;;;;15.23;9.07;;;;;;;16.94;86.33;98686.13;4994775;28;20034;-87
2023/09/17 02:18:54;;;;;;;10.65;8.65;;;;;;;16.80;87.26;98685.25;5014374;28;20058;-87
2023/09/17 02:21:19;;;;;;;20.50;9.73;;;;;;;16.59;87.54;98661.59;4989891;28;20512;-87
2023/09/17 02:23:45;;;;;;;11.55;9.70;;;;;;;16.86;86.61;98685.97;5012477;28;20034;-87
2023/09/17 02:26:11;;;;;;;13.23;8.73;;;;;;;16.88;84.50;98638.78;4996571;28;20040;-87
2023/09/17 02:28:36;;;;;;;13.63;8.85;;;;;;;17.28;84.00;98685.03;5009215;28;20512;-87
2023/09/17 02:31:02;;;;;;;20.00;8.68;;;;;;;17.20;84.65;98664.94;4992675;28;20378;-87
2023/09/17 02:33:27;;;;;;;14.70;9.35;;;;;;;17.44;84.09;98689.06;4994551;28;20030;-87
2023/09/17 02:35:53;;;;;;;8.43;7.57;;;;;;;17.05;83.83;98630.13;4999098;28;20037;-87
2023/09/17 02:38:19;;;;;;;12.43;8.15;;;;;;;17.37;84.16;98689.44;4981132;28;20040;-87
2023/09/17 02:40:44;;;;;;;10.10;7.72;;;;;;;17.54;83.53;98691.63;4995486;28;20090;-87
2023/09/17 02:43:09;;;;;;;15.27;7.88;;;;;;;17.57;83.48;98678.34;4995595;28;20490;-87
2023/09/17 02:45:35;;;;;;;12.15;7.43;;;;;;;17.55;83.53;98696.72;5006412;28;20573;-87
2023/09/17 02:48:01;;;;;;;13.30;8.18;;;;;;;17.45;83.68;98672.56;4981693;28;20461;-87
2023/09/17 02:50:27;;;;;;;12.52;8.13;;;;;;;17.49;83.65;98692.50;4996310;28;20029;-87
2023/09/17 02:52:52;;;;;;;11.38;8.60;;;;;;;17.41;83.88;98685.06;4995197;28;20497;-88
2023/09/17 02:55:18;;;;;;;10.90;9.77;;;;;;;17.47;83.55;98683.09;4977856;28;20038;-88
2023/09/17 02:57:43;;;;;;;10.50;8.57;;;;;;;17.48;83.53;98688.19;4978988;28;20026;-88
2023/09/17 03:00:09;;;;;;;10.38;8.07;;;;;;;17.29;83.56;98667.75;5011144;28;20034;-87
2023/09/17 03:02:34;;;;;;;12.38;8.65;;;;;;;17.37;84.37;98684.06;5006178;28;20030;-88
2023/09/17 03:04:59;;;;;;;12.23;8.77;;;;;;;17.38;83.65;98671.38;5012890;28;20034;-87
2023/09/17 03:07:25;;;;;;;9.32;8.38;;;;;;;17.46;83.50;98684.16;4995034;28;20898;-88
2023/09/17 03:09:51;;;;;;;13.23;8.07;;;;;;;17.47;83.38;98686.59;4977802;28;20064;-89
2023/09/17 03:12:16;;;;;;;9.57;8.07;;;;;;;17.50;83.12;98688.72;5012059;28;20363;-89
2023/09/17 03:14:42;;;;;;;10.82;8.25;;;;;;;17.40;83.37;98680.78;4989015;28;20022;-89
2023/09/17 03:17:07;;;;;;;11.50;8.02;;;;;;;17.04;83.82;98625.81;5011472;28;20998;-89
2023/09/17 03:19:32;;;;;;;9.02;7.65;;;;;;;17.27;83.60;98678.03;4976975;28;20475;-89
2023/09/17 03:21:58;;;;;;;10.90;7.80;;;;;;;17.04;83.88;98637.41;4981656;28;20367;-89
2023/09/17 03:24:23;;;;;;;10.20;9.02;;;;;;;17.40;83.66;98691.56;4979705;28;20033;-89
2023/09/17 03:26:49;;;;;;;13.70;9.18;;;;;;;16.86;83.45;98599.72;5004180;28;20116;-89
2023/09/17 03:29:15;;;;;;;10.38;8.20;;;;;;;16.97;83.75;98633.50;5011022;28;20493;-89
2023/09/17 03:31:41;;;;;;;8.75;7.70;;;;;;;17.44;84.09;98697.16;4974153;28;20087;-88
2023/09/17 03:34:07;;;;;;;16.10;8.73;;;;;;;17.29;84.09;98686.63;5015133;28;20038;-88
2023/09/17 03:36:35;;;;;;;10.70;8.57;;;;;;;17.12;84.23;98641.34;5005677;28;20088;-88
2023/09/17 03:39:00;;;;;;;13.52;7.80;;;;;;;17.45;84.64;98683.34;5011935;28;20122;-87
2023/09/17 03:41:26;;;;;;;11.43;8.32;;;;;;;17.43;84.73;98690.97;5015047;28;20115;-88
2023/09/17 03:43:52;;;;;;;10.52;8.48;;;;;;;17.42;84.29;98683.97;5011951;28;20022;-88
2023/09/17 03:46:18;;;;;;;9.68;8.75;;;;;;;17.10;84.75;98638.13;4994618;28;20369;-88
2023/09/17 03:48:44;;;;;;;10.45;9.35;;;;;;;17.37;84.39;98694.03;4994936;28;20362;-88
2023/09/17 03:51:09;;;;;;;14.63;9.27;;;;;;;17.19;84.10;98650.63;4995200;28;20088;-88
2023/09/17 03:53:35;;;;;;;10.20;9.20;;;;;;;17.38;84.67;98688.38;4995390;28;20109;-88
2023/09/17 03:56:00;;;;;;;11.05;9.35;;;;;;;17.36;84.28;98684.34;4977575;28;20117;-88
2023/09/17 03:58:26;;;;;;;12.18;9.82;;;;;;;17.02;84.23;98634.22;5000468;28;20045;-88
2023/09/17 04:00:51;;;;;;;11.23;9.98;;;;;;;17.25;84.36;98668.31;4991338;28;20022;-88
2023/09/17 04:03:19;;;;;;;13.57;10.43;;;;;;;17.41;84.13;98676.97;5010633;28;20073;-88
2023/09/17 04:05:46;;;;;;;11.93;10.23;;;;;;;17.31;84.26;98687.94;5012741;28;20030;-88
2023/09/17 04:08:11;;;;;;;15.18;9.80;;;;;;;17.36;84.71;98681.66;4980735;28;20033;-88
2023/09/17 04:10:37;;;;;;;15.13;9.85;;;;;;;17.06;84.81;98643.31;5013832;28;20065;-88
2023/09/17 04:13:02;;;;;;;16.13;9.90;;;;;;;17.18;85.56;98688.69;4992811;28;20128;-87
2023/09/17 04:15:28;;;;;;;10.70;9.60;;;;;;;17.18;84.76;98688.69;5004491;28;20367;-87
2023/09/17 04:17:53;;;;;;;13.15;10.30;;;;;;;17.26;85.14;98701.50;5009795;28;20029;-88
2023/09/17 04:20:19;;;;;;;12.48;9.20;;;;;;;17.25;85.59;98695.31;4981367;28;20054;-88
2023/09/17 04:22:49;;;;;;;12.15;9.57;;;;;;;17.15;85.75;98694.66;5008109;28;20022;-88
2023/09/17 04:25:17;;;;;;;10.43;9.32;;;;;;;17.00;85.17;98654.47;5009142;28;20088;-88
2023/09/17 04:27:44;;;;;;;11.77;9.90;;;;;;;17.12;85.68;98700.69;5006952;28;20022;-88
2023/09/17 04:30:11;;;;;;;9.63;8.50;;;;;;;17.14;86.06;98711.97;5004408;28;20516;-88
2023/09/17 04:32:37;;;;;;;15.10;9.85;;;;;;;17.12;85.53;98695.28;5006993;28;20026;-88
2023/09/17 04:35:08;;;;;;;12.50;8.88;;;;;;;17.14;85.88;98706.56;4978890;28;20053;-88
2023/09/17 04:37:34;;;;;;;10.18;9.02;;;;;;;17.37;85.35;98710.22;5017517;28;20021;-88
2023/09/17 04:40:00;;;;;;;13.07;9.02;;;;;;;16.99;84.79;98658.28;4995388;28;20026;-88
2023/09/17 04:42:26;;;;;;;15.63;9.95;;;;;;;16.96;85.19;98653.47;4994870;28;20520;-88
2023/09/17 04:44:51;;;;;;;10.60;8.15;;;;;;;17.24;85.35;98720.69;4977728;28;20033;-88
2023/09/17 04:47:17;;;;;;;9.32;8.20;;;;;;;17.02;85.42;98663.06;5012213;28;20030;-88
2023/09/17 04:49:42;;;;;;;10.80;9.05;;;;;;;17.21;85.19;98713.19;4995657;28;20830;-88
2023/09/17 04:52:07;;;;;;;12.32;9.00;;;;;;;16.92;85.24;98660.53;5013987;28;20060;-88
2023/09/17 04:54:33;;;;;;;16.25;8.50;;;;;;;17.26;84.75;98712.28;4993882;28;20030;-88
2023/09/17 04:56:58;;;;;;;12.80;8.65;;;;;;;17.10;85.16;98708.25;4995878;28;20049;-88
2023/09/17 04:59:23;;;;;;;10.70;7.88;;;;;;;17.14;85.08;98715.47;4983832;28;20030;-88
2023/09/17 05:01:49;;;;;;;12.57;8.82;;;;;;;17.12;85.04;98708.75;4996986;28;20026;-88
2023/09/17 05:04:15;;;;;;;11.02;8.18;;;;;;;17.04;85.28;98704.03;4996964;28;20034;-88
2023/09/17 05:06:42;;;;;;;11.68;7.95;;;;;;;16.83;85.60;98690.06;5012266;28;20041;-88
2023/09/17 05:09:08;;;;;;;13.98;8.10;;;;;;;16.92;85.38;98709.06;4997243;28;20106;-88
2023/09/17 05:11:34;;;;;;;10.25;8.48;;;;;;;17.00;84.67;98708.41;5018432;28;20510;-88
2023/09/17 05:14:01;;;;;;;12.23;7.53;;;;;;;16.99;84.55;98704.13;4997727;28;20065;-88
2023/09/17 05:16:26;;;;;;;11.80;7.95;;;;;;;16.90;85.05;98697.78;4995707;28;20034;-89
2023/09/17 05:18:52;;;;;;;13.85;7.85;;;;;;;17.04;85.00;98699.44;5011589;28;20037;-88
2023/09/17 05:21:19;;;;;;;7.35;6.75;;;;;;;16.93;84.40;98678.31;4978172;28;20101;-88
2023/09/17 05:23:45;;;;;;;11.23;8.30;;;;;;;16.94;84.24;98706.88;4997461;28;20028;-88
2023/09/17 05:26:10;;;;;;;10.63;7.90;;;;;;;16.75;84.77;98681.84;5008015;28;20026;-89
2023/09/17 05:28:35;;;;;;;12.07;7.40;;;;;;;17.03;84.40;98710.53;4978940;28;20483;-88
2023/09/17 05:31:01;;;;;;;12.38;8.38;;;;;;;16.98;84.12;98710.59;4995515;28;20033;-88
2023/09/17 05:33:27;;;;;;;10.93;8.88;;;;;;;16.59;84.29;98658.88;4972618;28;20121;-88
2023/09/17 05:35:56;;;;;;;12.15;8.05;;;;;;;16.98;84.53;98719.50;4994541;28;20030;-88
2023/09/17 05:38:23;;;;;;;8.40;7.60;;;;;;;16.80;84.39;98703.31;5013540;28;20489;-88
2023/09/17 05:40:49;;;;;;;17.42;8.05;;;;;;;16.83;84.67;98714.31;4996656;28;20030;-88
2023/09/17 05:43:15;;;;;;;11.77;8.02;;;;;;;16.89;84.46;98718.53;4997017;28;20976;-88
2023/09/17 05:45:40;;;;;;;13.07;7.50;;;;;;;16.83;84.21;98721.59;4980825;28;20037;-88
2023/09/17 05:48:05;;;;;;;10.07;8.00;;;;;;;16.75;84.75;98706.09;4979798;28;20410;-88
2023/09/17 05:50:31;;;;;;;10.15;8.07;;;;;;;16.83;84.03;98718.91;4973936;28;20068;-88
2023/09/17 05:52:56;;;;;;;8.38;7.68;;;;;;;16.70;83.96;98711.56;4997397;28;20037;-88
2023/09/17 05:55:22;;;;;;;10.02;7.88;;;;;;;16.80;84.29;98730.25;4997189;28;20084;-88
2023/09/17 05:57:47;;;;;;;10.82;8.85;;;;;;;16.74;84.16;98704.47;4977397;28;20061;-88
2023/09/17 06:00:13;;;;;;;11.82;8.40;;;;;;;16.45;84.92;98715.34;4992987;28;20087;-88
2023/09/17 06:02:38;;;;;;;11.48;7.95;;;;;;;16.64;85.30;98715.41;4996097;28;20042;-88
2023/09/17 06:05:04;;;;;;;11.73;8.52;;;;;;;16.67;85.13;98717.50;5002386;28;20037;-88
2023/09/17 06:07:30;;;;;;;10.52;8.40;;;;;;;16.79;84.86;98718.69;5008880;28;20617;-88
2023/09/17 06:09:55;;;;;;;11.27;9.18;;;;;;;16.49;84.69;98665.19;4991919;28;20497;-88
2023/09/17 06:12:20;;;;;;;12.05;8.98;;;;;;;16.74;84.92;98704.47;4982754;28;20069;-88
2023/09/17 06:14:46;;;;;;;11.32;8.75;;;;;;;16.83;85.04;98724.31;4994411;28;21034;-88
2023/09/17 06:17:11;;;;;;;11.32;9.77;;;;;;;16.82;85.36;98720.03;5010179;28;20038;-89
2023/09/17 06:19:37;;;;;;;11.07;9.32;;;;;;;16.31;87.34;98712.59;4993864;28;20026;-87
2023/09/17 06:22:03;;;;;;;9.18;8.27;;;;;;;16.62;86.79;98713.00;4993783;28;20034;-87
2023/09/17 06:24:29;;;;;;;9.98;7.88;;;;;;;16.77;85.75;98706.59;5015473;28;20034;-88
2023/09/17 06:26:55;;;;;;;10.13;9.13;;;;;;;16.70;86.16;98716.94;4978330;28;20097;-88
2023/09/17 06:29:21;;;;;;;9.95;8.65;;;;;;;16.66;85.62;98697.88;5006519;28;20033;-88
2023/09/17 06:31:46;;;;;;;10.02;9.02;;;;;;;16.87;85.43;98717.22;5007449;28;20393;-88
2023/09/17 06:34:12;;;;;;;11.55;8.65;;;;;;;16.65;84.87;98673.88;5008250;28;20057;-89
2023/09/17 06:36:38;;;;;;;9.88;7.97;;;;;;;17.07;84.22;98730.41;5010885;28;20117;-87
2023/09/17 06:39:06;;;;;;;11.10;9.02;;;;;;;16.95;85.42;98730.06;4995240;28;20065;-89
2023/09/17 06:41:32;;;;;;;8.93;8.02;;;;;;;16.79;84.77;98707.91;5013263;28;20029;-89
2023/09/17 06:43:57;;;;;;;13.35;8.55;;;;;;;16.96;85.33;98731.66;5010139;28;20064;-88
2023/09/17 06:46:24;;;;;;;11.43;9.93;;;;;;;16.98;85.43;98726.78;4994251;28;20517;-87
2023/09/17 06:48:50;;;;;;;9.35;8.05;;;;;;;17.08;84.88;98724.72;4998031;28;20443;-88
2023/09/17 06:51:15;;;;;;;12.85;11.20;;;;;;;16.85;88.31;98730.19;5009576;28;20049;-88
2023/09/17 06:53:44;;;;;;;11.73;9.57;;;;;;;17.06;86.24;98732.31;5006347;28;20030;-87
2023/09/17 06:56:12;;;;;;;8.90;8.00;;;;;;;17.17;84.71;98724.84;5008381;28;20057;-87
2023/09/17 06:58:38;;;;;;;9.15;8.25;;;;;;;17.03;85.75;98711.34;5027591;28;20105;-87
2023/09/17 07:01:05;;;;;;;9.57;8.10;;;;;;;17.19;85.86;98725.34;4995178;28;20117;-88
2023/09/17 07:03:30;;;;;;;10.27;9.27;;;;;;;16.94;87.10;98682.63;5003986;28;20057;-88
2023/09/17 07:05:56;;;;;;;13.07;10.07;;;;;;;16.84;85.38;98639.66;5010908;28;20500;-88
2023/09/17 07:08:21;;;;;;;11.60;8.15;;;;;;;17.04;84.24;98658.97;5011833;28;21664;-88
2023/09/17 07:10:46;;;;;;;11.75;9.32;;;;;;;17.47;84.28;98710.06;4989983;28;20117;-88
2023/09/17 07:13:12;;;;;;;12.40;10.68;;;;;;;17.17;85.90;98673.59;4996321;28;20481;-88
2023/09/17 07:15:37;;;;;;;7.88;7.07;;;;;;;17.12;84.20;98655.59;4991853;28;20121;-88
2023/09/17 07:18:08;;;;;;;11.27;8.85;;;;;;;17.44;83.54;98692.56;4992881;28;20482;-87
2023/09/17 07:20:33;;;;;;;9.23;7.70;;;;;;;17.58;83.90;98715.00;4994459;28;20077;-88
2023/09/17 07:22:58;;;;;;;9.82;8.82;;;;;;;17.52;83.07;98693.81;5012212;28;20034;-88
2023/09/17 07:25:24;;;;;;;8.82;7.93;;;;;;;17.82;82.27;98710.25;4993518;28;20038;-88
2023/09/17 07:27:49;;;;;;;8.65;7.75;;;;;;;17.66;82.90;98703.53;4995314;28;20135;-88
2023/09/17 07:30:15;;;;;;;7.97;7.18;;;;;;;17.70;82.37;98712.66;4996360;28;20035;-88
2023/09/17 07:32:40;;;;;;;8.32;7.53;;;;;;;17.82;82.33;98712.94;4972614;28;20044;-88
2023/09/17 07:35:08;;;;;;;9.25;8.30;;;;;;;17.68;82.74;98695.94;5005886;28;20093;-88
2023/09/17 07:37:33;;;;;;;10.65;8.73;;;;;;;17.18;83.05;98615.88;4995208;28;20041;-88
2023/09/17 07:40:01;;;;;;;9.35;8.45;;;;;;;17.37;82.90;98643.59;4977451;28;20481;-88
2023/09/17 07:42:27;;;;;;;9.32;8.43;;;;;;;17.89;82.52;98705.25;4992292;28;20037;-88
2023/09/17 07:44:52;;;;;;;10.30;8.93;;;;;;;17.75;83.57;98704.47;4988816;28;20405;-89
2023/09/17 07:47:18;;;;;;;10.90;9.45;;;;;;;17.68;83.85;98706.75;5008361;28;20500;-88
2023/09/17 07:49:43;;;;;;;9.88;8.88;;;;;;;17.73;83.16;98686.97;4991863;28;20040;-88
2023/09/17 07:52:09;;;;;;;13.32;9.15;;;;;;;17.88;82.84;98698.28;4991424;28;20038;-88
2023/09/17 07:54:39;;;;;;;12.07;9.70;;;;;;;17.84;86.65;98705.34;4977695;28;20123;-88
2023/09/17 07:57:06;;;;;;;11.15;9.75;;;;;;;17.87;85.95;98680.47;4990256;28;20489;-88
2023/09/17 07:59:31;;;;;;;15.65;9.55;;;;;;;17.92;87.38;98688.47;5008753;28;20060;-88
2023/09/17 08:01:58;;;;;;;11.38;10.13;;;;;;;18.07;84.63;98697.34;4994852;28;20035;-88
2023/09/17 08:04:23;;;;;;;12.75;8.15;;;;;;;18.35;85.31;98698.94;4997173;28;20452;-88
2023/09/17 08:06:49;;;;;;;11.23;10.00;;;;;;;18.40;83.99;98688.03;4991684;28;20088;-87
2023/09/17 08:09:15;;;;;;;9.68;8.75;;;;;;;18.32;82.47;98640.91;5008207;28;20084;-86
2023/09/17 08:11:42;;;;;;;7.85;7.15;;;;;;;18.73;82.39;98700.31;5009668;28;20029;-87
2023/09/17 08:14:08;;;;;;;12.10;8.48;;;;;;;18.58;82.08;98662.81;5005952;28;20068;-86
2023/09/17 08:16:34;;;;;;;9.80;7.72;;;;;;;18.69;82.15;98675.78;5006808;28;20021;-87
2023/09/17 08:18:59;;;;;;;8.60;7.72;;;;;;;18.80;81.88;98684.47;4987351;28;20038;-87
2023/09/17 08:21:25;;;;;;;9.30;8.13;;;;;;;18.97;84.91;98705.44;4972507;28;20022;-87
2023/09/17 08:23:50;;;;;;;10.00;8.52;;;;;;;18.92;83.08;98679.31;4988961;28;20058;-87
2023/09/17 08:26:17;;;;;;;9.02;8.13;;;;;;;18.96;81.39;98668.69;4998653;28;20165;-86
2023/09/17 08:28:44;;;;;;;13.02;9.15;;;;;;;18.77;82.29;98638.28;5001699;28;20030;-87
2023/09/17 08:31:09;;;;;;;10.20;7.85;;;;;;;19.12;82.68;98694.25;5005589;28;20030;-87
2023/09/17 08:33:35;;;;;;;8.85;7.97;;;;;;;19.06;81.15;98658.41;5013253;28;20438;-87
2023/09/17 08:36:01;;;;;;;10.27;7.22;;;;;;;19.48;81.08;98699.63;4996856;28;20037;-86
2023/09/17 08:38:26;;;;;;;8.20;7.40;;;;;;;19.24;81.53;98649.28;4995670;28;20044;-87
2023/09/17 08:40:52;;;;;;;8.82;7.13;;;;;;;19.38;80.48;98654.66;5012107;28;20084;-87
2023/09/17 08:43:18;;;;;;;9.07;7.50;;;;;;;19.42;80.01;98652.91;5014715;28;20524;-88
2023/09/17 08:45:44;;;;;;;9.77;6.82;;;;;;;19.72;79.28;98670.28;5015824;28;20030;-88
2023/09/17 08:48:09;;;;;;;7.25;6.43;;;;;;;20.02;78.24;98691.13;5017610;28;20099;-88
2023/09/17 08:50:36;;;;;;;8.35;7.55;;;;;;;19.70;79.05;98653.56;5011631;28;20133;-89
2023/09/17 08:53:06;;;;;;;9.02;6.95;;;;;;;19.79;79.90;98655.16;4992549;28;20030;-89
2023/09/17 08:55:32;;;;;;;8.98;8.07;;;;;;;20.13;80.03;98685.09;5011344;28;20072;-88
2023/09/17 08:58:26;;;;;;;8.35;7.05;;;;;;;20.32;77.83;98695.69;5009862;28;20030;-89
2023/09/17 09:00:55;;;;;;;7.70;6.78;;;;;;;20.45;76.73;98696.66;5009766;28;20056;-89
2023/09/17 09:03:23;;;;;;;7.95;6.75;;;;;;;20.49;76.46;98705.78;5013823;28;20053;-89
2023/09/17 09:05:50;;;;;;;9.57;7.30;;;;;;;20.14;77.45;98640.63;5022984;28;20084;-89
2023/09/17 09:08:17;;;;;;;9.18;6.35;;;;;;;20.43;77.80;98678.03;4995693;28;20140;-89
2023/09/17 09:10:42;;;;;;;8.40;6.95;;;;;;;20.62;76.62;98696.72;5008490;28;20049;-88
2023/09/17 09:13:09;;;;;;;7.55;6.85;;;;;;;20.59;75.76;98684.59;5012450;28;20034;-89
2023/09/17 09:15:35;;;;;;;7.53;6.78;;;;;;;20.70;76.13;98696.72;4992089;28;20026;-89
2023/09/17 09:18:00;;;;;;;7.45;6.70;;;;;;;20.67;75.37;98689.22;5015106;28;20030;-89
2023/09/17 09:20:26;;;;;;;10.70;7.05;;;;;;;20.75;75.11;98693.06;4978048;28;20088;-88
2023/09/17 09:22:52;;;;;;;8.25;7.35;;;;;;;20.84;75.43;98704.69;4979877;28;20045;-89
2023/09/17 09:25:18;;;;;;;7.90;7.20;;;;;;;20.68;77.05;98666.41;4995750;28;20038;-89
2023/09/17 09:27:44;;;;;;;7.88;7.15;;;;;;;21.00;76.56;98711.25;5010724;28;20129;-90
2023/09/17 09:30:11;;;;;;;6.90;6.20;;;;;;;21.03;75.58;98707.94;5024611;28;20113;-87
2023/09/17 09:32:37;;;;;;;9.02;6.57;;;;;;;20.74;77.37;98642.63;5015766;28;20037;-87
2023/09/17 09:35:04;;;;;;;6.93;6.28;;;;;;;21.18;75.32;98704.75;4995433;28;20828;-88
2023/09/17 09:37:30;;;;;;;7.03;5.75;;;;;;;21.32;74.61;98702.63;5012998;28;20057;-89
2023/09/17 09:39:56;;;;;;;6.78;5.40;;;;;;;21.48;73.71;98700.22;5017123;28;20396;-88
2023/09/17 09:42:23;;;;;;;6.50;5.93;;;;;;;21.54;72.27;98696.19;5006974;28;20093;-89
2023/09/17 09:44:50;;;;;;;5.05;4.55;;;;;;;21.32;73.38;98650.25;4997690;28;20417;-88
2023/09/17 09:47:16;;;;;;;7.70;5.80;;;;;;;21.64;71.89;98687.72;4995550;28;20034;-88
2023/09/17 09:49:43;;;;;;;5.45;4.95;;;;;;;21.52;71.22;98665.84;5000221;28;20402;-88
2023/09/17 09:52:12;;;;;;;6.63;5.03;;;;;;;21.39;71.14;98632.34;5010644;28;20029;-88
2023/09/17 09:54:40;;;;;;;5.93;5.10;;;;;;;21.75;71.18;98691.69;4994344;28;20030;-89
2023/09/17 09:57:05;;;;;;;10.20;5.28;;;;;;;21.94;70.30;98696.75;4979985;28;20120;-87
2023/09/17 09:59:33;;;;;;;11.73;5.70;;;;;;;22.10;70.55;98693.16;5012736;28;20080;-88
2023/09/17 10:02:01;;;;;;;6.22;5.65;;;;;;;22.02;70.24;98669.53;4994179;28;20042;-88
2023/09/17 10:04:26;;;;;;;9.35;5.35;;;;;;;22.24;69.98;98699.16;4993120;28;20048;-89
2023/09/17 10:06:52;;;;;;;5.47;4.97;;;;;;;22.31;68.90;98672.25;5011498;28;20461;-88
2023/09/17 10:09:18;;;;;;;5.18;4.75;;;;;;;22.53;69.22;98686.66;4993592;28;20397;-88
2023/09/17 10:11:43;;;;;;;7.07;6.10;;;;;;;22.51;68.93;98672.59;5010085;28;20136;-89
2023/09/17 10:14:09;;;;;;;6.50;4.80;;;;;;;22.51;68.20;98667.16;5006330;28;20409;-89
2023/09/17 10:16:37;;;;;;;6.75;5.47;;;;;;;22.44;67.67;98636.97;5008793;28;20647;-88
2023/09/17 10:19:04;;;;;;;7.18;5.72;;;;;;;22.78;67.59;98683.00;5006395;28;20068;-88
2023/09/17 10:21:37;;;;;;;6.28;5.40;;;;;;;22.82;67.06;98681.22;4992053;28;20017;-88
2023/09/17 10:24:03;;;;;;;7.03;5.90;;;;;;;22.91;67.20;98676.50;5003490;28;20026;-88
2023/09/17 10:26:32;;;;;;;6.50;5.63;;;;;;;23.00;67.61;98675.28;5010550;28;20075;-88
2023/09/17 10:29:00;;;;;;;6.43;5.70;;;;;;;22.99;67.28;98676.44;4999688;28;20030;-88
2023/09/17 10:31:25;;;;;;;5.60;5.10;;;;;;;23.06;66.44;98670.44;4987300;28;20058;-88
2023/09/17 10:33:52;;;;;;;6.20;5.60;;;;;;;23.09;67.41;98673.28;4992185;28;20057;-88
2023/09/17 10:36:18;;;;;;;12.30;5.53;;;;;;;23.18;67.10;98672.41;5007324;28;20033;-88
2023/09/17 10:38:46;;;;;;;15.77;5.32;;;;;;;23.34;68.01;98662.50;5016152;28;20503;-88
2023/09/17 10:41:12;;;;;;;6.10;5.40;;;;;;;23.37;67.73;98667.28;4998449;28;20044;-89
2023/09/17 10:43:42;;;;;;;8.80;5.85;;;;;;;23.37;67.27;98657.16;5010528;28;20032;-89
2023/09/17 10:46:09;;;;;;;7.05;5.70;;;;;;;23.33;67.79;98675.31;5009113;28;20044;-88
2023/09/17 10:48:36;;;;;;;136.57;16.77;;;;;;;23.33;67.64;98620.84;4977329;28;20441;-88
2023/09/17 10:51:03;;;;;;;42.30;8.10;;;;;;;23.58;68.16;98671.53;5007559;28;20042;-88
2023/09/17 10:53:28;;;;;;;6.50;5.57;;;;;;;23.57;67.41;98660.97;5011454;28;20065;-88
2023/09/17 10:56:10;;;;;;;17.45;6.32;;;;;;;23.58;67.17;98654.41;5012170;28;20064;-88
2023/09/17 10:58:38;;;;;;;6.65;5.35;;;;;;;23.63;67.42;98660.41;5009311;28;20045;-88
2023/09/17 11:01:06;;;;;;;7.97;5.20;;;;;;;23.70;67.00;98662.56;5008935;28;20026;-88
2023/09/17 11:03:35;;;;;;;6.70;5.80;;;;;;;23.64;66.83;98620.31;5027600;28;20034;-88
2023/09/17 11:06:04;;;;;;;6.00;5.40;;;;;;;24.01;66.39;98651.13;4975692;28;20030;-89
2023/09/17 11:08:30;;;;;;;7.88;5.32;;;;;;;24.22;66.29;98660.81;4992308;28;20034;-89
2023/09/17 11:10:55;;;;;;;5.97;4.93;;;;;;;24.21;65.61;98612.88;5020856;28;20084;-89
2023/09/17 11:13:24;;;;;;;8.88;6.00;;;;;;;24.46;64.60;98613.63;4992080;28;20037;-89
2023/09/17 11:15:54;;;;;;;5.25;4.75;;;;;;;24.54;63.99;98618.94;5011066;28;20401;-89
2023/09/17 11:18:19;;;;;;;6.60;4.82;;;;;;;24.28;63.62;98565.91;5010853;28;20034;-88
2023/09/17 11:21:00;;;;;;;6.30;4.95;;;;;;;24.90;63.40;98631.69;5010226;28;20470;-88
2023/09/17 11:23:55;;;;;;;10.20;5.10;;;;;;;24.89;63.81;98654.69;4994133;28;20045;-89